Time;durP1;ratioP1;P1;durP2;ratioP2;P2;SDS_P1;SDS_P2;PMS_P1;PMS_P2;Temp;Humidity;BMP_temperature;BMP_pressure;BME280_temperature;BME280_humidity;BME280_pressure;Samples;Min_cycle;Max_cycle;Signal;HPM_P1;HPM_P2
2022/08/08 00:00:03;;;;;;;4.50;3.53;;;;;;;17.67;47.53;101724.69;847360;23;1463;-89
2022/08/08 00:00:36;;;;;;;5.20;3.97;;;;;;;17.64;47.62;101722.91;843646;23;1329;-89
2022/08/08 00:01:07;;;;;;;4.60;3.80;;;;;;;17.63;47.77;101717.59;843096;23;1901;-87
2022/08/08 00:01:42;;;;;;;4.30;3.70;;;;;;;17.67;47.37;101724.69;847109;23;1458;-88
2022/08/08 00:02:11;;;;;;;4.60;3.80;;;;;;;17.64;47.31;101722.03;839469;23;1201;-88
2022/08/08 00:02:51;;;;;;;4.20;3.70;;;;;;;17.67;47.29;101735.25;835562;23;1316;-89
2022/08/08 00:03:24;;;;;;;4.72;3.92;;;;;;;17.60;47.15;101729.03;839543;23;1313;-88
2022/08/08 00:04:17;;;;;;;5.30;3.70;;;;;;;17.59;47.31;101740.44;847909;23;1218;-89
2022/08/08 00:04:58;;;;;;;4.90;3.85;;;;;;;17.56;47.43;101736.88;847567;23;1267;-89
2022/08/08 00:05:27;;;;;;;4.10;3.58;;;;;;;17.55;47.63;101735.97;843506;23;1182;-89
2022/08/08 00:06:06;;;;;;;3.85;3.45;;;;;;;17.44;47.83;101721.75;852087;23;1557;-89
2022/08/08 00:06:53;;;;;;;4.18;3.78;;;;;;;17.44;47.88;101727.91;851310;23;1240;-88
2022/08/08 00:07:23;;;;;;;4.40;3.75;;;;;;;17.44;47.90;101738.44;847747;23;1370;-88
2022/08/08 00:07:52;;;;;;;4.07;3.35;;;;;;;17.46;48.10;101741.13;840293;23;1350;-88
2022/08/08 00:08:18;;;;;;;4.00;3.55;;;;;;;17.46;48.00;101744.63;843936;23;1202;-88
2022/08/08 00:08:45;;;;;;;6.63;3.80;;;;;;;17.45;48.09;101744.63;847733;23;1338;-88
2022/08/08 00:09:23;;;;;;;6.72;4.15;;;;;;;17.38;48.38;101735.72;843618;23;1344;-88
2022/08/08 00:10:04;;;;;;;4.32;3.92;;;;;;;17.44;48.53;101738.44;851597;23;1285;-88
2022/08/08 00:10:37;;;;;;;3.97;3.55;;;;;;;17.45;48.71;101734.94;851851;23;1373;-88
2022/08/08 00:11:05;;;;;;;4.78;3.80;;;;;;;17.46;48.72;101742.00;835548;23;1336;-89
2022/08/08 00:11:41;;;;;;;5.20;3.90;;;;;;;17.45;48.58;101739.34;847481;23;1331;-89
2022/08/08 00:12:07;;;;;;;4.93;4.07;;;;;;;17.44;48.58;101733.19;847596;23;1210;-89
2022/08/08 00:12:36;;;;;;;4.40;4.00;;;;;;;17.43;48.57;101735.78;846174;23;1295;-89
2022/08/08 00:13:39;;;;;;;4.28;3.78;;;;;;;17.47;48.41;101742.91;851365;23;1327;-89
2022/08/08 00:14:08;;;;;;;5.32;3.80;;;;;;;17.47;48.46;101734.97;843179;23;1373;-89
2022/08/08 00:14:48;;;;;;;6.25;3.80;;;;;;;17.44;48.45;101730.53;843259;23;1324;-88
2022/08/08 00:15:14;;;;;;;6.45;3.95;;;;;;;17.42;48.33;101728.72;851026;23;1202;-89
2022/08/08 00:15:40;;;;;;;6.07;4.20;;;;;;;17.47;48.44;101733.25;851899;23;1291;-89
2022/08/08 00:16:06;;;;;;;6.07;3.90;;;;;;;17.44;48.47;101738.44;847576;23;1428;-89
2022/08/08 00:16:43;;;;;;;6.10;4.10;;;;;;;17.48;48.56;101729.72;847362;23;1367;-88
2022/08/08 00:17:21;;;;;;;5.13;4.22;;;;;;;17.43;48.45;101723.50;847111;23;1337;-88
2022/08/08 00:17:51;;;;;;;4.93;4.20;;;;;;;17.42;48.18;101727.00;843674;23;1394;-89
2022/08/08 00:18:54;;;;;;;5.40;4.10;;;;;;;17.44;48.15;101735.81;843503;23;1371;-89
2022/08/08 00:19:25;;;;;;;5.70;3.90;;;;;;;17.37;48.24;101733.94;843241;23;1253;-89
2022/08/08 00:20:07;;;;;;;5.00;3.72;;;;;;;17.30;48.15;101724.16;839284;23;1353;-89
2022/08/08 00:20:40;;;;;;;4.70;3.85;;;;;;;17.32;48.15;101733.00;834981;23;1425;-88
2022/08/08 00:21:02;;;;;;;4.50;4.10;;;;;;;17.29;48.16;101732.94;847050;23;1893;-89
2022/08/08 00:21:34;;;;;;;4.35;3.95;;;;;;;17.27;48.38;101738.19;847297;23;1258;-88
2022/08/08 00:22:17;;;;;;;4.50;3.70;;;;;;;17.22;48.66;101738.13;846763;23;1333;-89
2022/08/08 00:22:43;;;;;;;5.30;3.80;;;;;;;17.16;48.64;101727.47;843062;23;1273;-88
2022/08/08 00:23:39;;;;;;;4.95;4.10;;;;;;;17.19;48.84;101732.78;855699;23;1265;-89
2022/08/08 00:24:10;;;;;;;4.40;4.00;;;;;;;17.13;49.21;101727.41;846980;23;1386;-88
2022/08/08 00:24:46;;;;;;;4.20;3.60;;;;;;;17.15;49.13;101728.28;838992;23;1113;-89
2022/08/08 00:25:14;;;;;;;4.70;3.47;;;;;;;17.12;48.98;101723.00;839385;23;1412;-89
2022/08/08 00:25:47;;;;;;;5.03;3.80;;;;;;;17.11;49.49;101723.84;847076;23;1315;-88
2022/08/08 00:26:13;;;;;;;4.10;3.67;;;;;;;17.10;49.12;101728.22;851462;23;1278;-88
2022/08/08 00:26:42;;;;;;;4.05;3.65;;;;;;;17.11;49.17;101723.84;847951;23;1148;-87
2022/08/08 00:27:07;;;;;;;4.63;4.13;;;;;;;17.12;49.33;101725.63;835302;23;1459;-88
2022/08/08 00:27:29;;;;;;;4.70;4.20;;;;;;;17.11;49.13;101723.84;847323;23;1454;-89
2022/08/08 00:27:56;;;;;;;4.28;3.88;;;;;;;17.15;49.17;101730.06;835728;23;1277;-89
2022/08/08 00:28:24;;;;;;;4.30;3.90;;;;;;;17.12;49.17;101728.25;843751;23;1205;-88
2022/08/08 00:28:48;;;;;;;4.60;4.10;;;;;;;17.16;49.21;101723.91;847542;23;1232;-88
2022/08/08 00:29:12;;;;;;;4.72;4.10;;;;;;;17.15;49.10;101730.94;847588;23;1331;-88
2022/08/08 00:29:45;;;;;;;4.55;4.10;;;;;;;17.07;49.04;101719.38;851309;23;1428;-88
2022/08/08 00:30:08;;;;;;;4.45;4.05;;;;;;;17.15;49.09;101730.94;847117;23;1254;-89
2022/08/08 00:30:34;;;;;;;4.60;4.10;;;;;;;17.10;49.11;101719.44;846521;23;1219;-89
2022/08/08 00:30:58;;;;;;;5.10;4.20;;;;;;;17.10;49.04;101716.81;847481;23;1279;-89
2022/08/08 00:31:30;;;;;;;4.68;4.18;;;;;;;17.13;49.18;101723.03;851715;23;1306;-89
2022/08/08 00:31:56;;;;;;;5.57;4.20;;;;;;;17.11;49.28;101726.50;843447;23;1260;-88
2022/08/08 00:32:26;;;;;;;5.82;4.28;;;;;;;17.13;49.34;101728.28;839561;23;1212;-89
2022/08/08 00:33:14;;;;;;;5.20;4.00;;;;;;;17.12;49.31;101725.63;835917;23;1349;-88
2022/08/08 00:33:44;;;;;;;5.50;4.22;;;;;;;17.08;49.34;101719.41;847424;23;1283;-88
2022/08/08 00:35:31;;;;;;;4.70;3.70;;;;;;;17.10;49.14;101724.72;846857;23;1403;-88
2022/08/08 00:35:55;;;;;;;6.00;3.90;;;;;;;17.15;49.12;101741.47;843613;23;1529;-89
2022/08/08 00:36:29;;;;;;;5.95;4.03;;;;;;;17.09;49.14;101730.84;851656;23;1264;-88
2022/08/08 00:37:00;;;;;;;4.50;4.10;;;;;;;17.08;49.31;101727.31;854279;23;1294;-88
2022/08/08 00:37:33;;;;;;;7.32;4.15;;;;;;;17.16;49.42;101740.66;854669;23;1333;-88
2022/08/08 00:38:03;;;;;;;6.38;3.92;;;;;;;17.13;49.50;101737.94;849114;23;1152;-89
2022/08/08 00:38:30;;;;;;;4.95;4.30;;;;;;;17.16;49.47;101737.13;851876;23;1280;-89
2022/08/08 00:39:09;;;;;;;5.00;4.10;;;;;;;17.16;49.48;101737.13;839314;23;1288;-89
2022/08/08 00:39:51;;;;;;;4.38;3.97;;;;;;;17.09;49.16;101728.22;828198;23;1418;-88
2022/08/08 00:40:12;;;;;;;4.45;4.05;;;;;;;17.13;49.23;101735.31;843041;23;1369;-89
2022/08/08 00:40:37;;;;;;;4.82;3.97;;;;;;;17.07;49.20;101732.56;853293;23;1232;-88
2022/08/08 00:41:07;;;;;;;5.72;4.05;;;;;;;17.10;49.02;101738.78;851229;23;1906;-88
2022/08/08 00:41:57;;;;;;;5.53;3.95;;;;;;;17.09;49.08;101737.00;839352;23;1364;-88
2022/08/08 00:42:42;;;;;;;4.68;4.10;;;;;;;17.07;49.25;101733.47;830871;23;1177;-89
2022/08/08 00:43:41;;;;;;;4.35;3.95;;;;;;;17.08;49.26;101737.00;831398;23;1172;-88
2022/08/08 00:44:33;;;;;;;4.38;3.90;;;;;;;16.98;49.37;101726.28;835410;23;1351;-89
2022/08/08 00:45:47;;;;;;;5.13;4.40;;;;;;;17.06;49.50;101736.97;819458;23;1316;-88
2022/08/08 00:46:08;;;;;;;5.40;4.10;;;;;;;17.07;49.46;101737.84;835152;23;1365;-88
2022/08/08 00:47:07;;;;;;;5.68;4.20;;;;;;;17.07;49.69;101737.84;826929;23;1265;-88
2022/08/08 00:47:46;;;;;;;5.70;4.40;;;;;;;17.06;49.57;101736.06;831095;23;1351;-89
2022/08/08 00:48:25;;;;;;;6.40;4.43;;;;;;;17.07;49.66;101732.56;827590;23;1350;-88
2022/08/08 00:49:05;;;;;;;5.95;3.97;;;;;;;17.06;49.59;101736.97;831365;23;1264;-88
2022/08/08 00:49:35;;;;;;;4.20;3.80;;;;;;;17.03;49.61;101736.03;834387;23;1244;-88
2022/08/08 00:50:34;;;;;;;4.97;4.25;;;;;;;17.03;49.58;101734.25;833008;23;1266;-88
2022/08/08 00:51:26;;;;;;;4.10;3.60;;;;;;;17.03;49.67;101736.03;851354;23;1179;-88
2022/08/08 00:52:12;;;;;;;4.63;4.07;;;;;;;17.04;49.57;101737.78;830949;23;1581;-88
2022/08/08 00:52:43;;;;;;;5.95;3.95;;;;;;;16.99;49.71;101732.44;831614;23;1225;-88
2022/08/08 00:53:39;;;;;;;5.40;3.70;;;;;;;16.97;49.63;101721.00;841936;23;1353;-89
2022/08/08 00:54:21;;;;;;;5.10;4.05;;;;;;;17.04;49.80;101732.53;827272;23;1241;-89
2022/08/08 00:55:17;;;;;;;4.82;4.20;;;;;;;17.04;49.71;101729.88;845539;23;1224;-88
2022/08/08 00:56:22;;;;;;;4.40;4.00;;;;;;;16.93;49.66;101725.34;847551;23;1373;-88
2022/08/08 00:57:24;;;;;;;5.18;4.20;;;;;;;16.95;49.56;101728.88;852050;23;1373;-88
2022/08/08 00:57:49;;;;;;;5.57;4.38;;;;;;;16.97;49.83;101732.41;847891;23;1368;-88
2022/08/08 00:58:40;;;;;;;6.60;4.70;;;;;;;16.95;49.75;101736.78;847642;23;1331;-88
2022/08/08 00:59:58;;;;;;;5.40;4.30;;;;;;;16.93;49.91;101734.97;851742;23;1187;-88
2022/08/08 01:00:26;;;;;;;4.80;4.28;;;;;;;16.90;49.98;101735.81;838686;23;1255;-89
2022/08/08 01:01:00;;;;;;;4.50;4.10;;;;;;;16.85;50.21;101726.94;831206;23;1950;-88
2022/08/08 01:01:37;;;;;;;5.43;4.20;;;;;;;16.91;50.26;101741.97;835225;23;1302;-89
2022/08/08 01:02:31;;;;;;;5.80;4.20;;;;;;;16.90;50.32;101746.34;831367;23;1260;-89
2022/08/08 01:03:09;;;;;;;4.40;4.00;;;;;;;16.91;50.17;101747.25;823330;24;1380;-88
2022/08/08 01:03:42;;;;;;;5.70;4.10;;;;;;;16.92;50.27;101738.47;839343;23;1208;-88
2022/08/08 01:04:25;;;;;;;5.78;4.18;;;;;;;16.91;50.24;101742.84;834526;23;1228;-89
2022/08/08 01:05:24;;;;;;;4.70;4.00;;;;;;;16.89;50.21;101744.59;834507;23;865;-89
2022/08/08 01:05:54;;;;;;;4.30;3.90;;;;;;;16.87;50.39;101746.31;827769;23;1255;-88
2022/08/08 01:06:54;;;;;;;5.10;4.28;;;;;;;16.87;50.39;101741.03;844729;23;949;-88
2022/08/08 01:07:48;;;;;;;4.97;4.47;;;;;;;16.86;50.21;101729.59;839441;23;1308;-88
2022/08/08 01:08:24;;;;;;;4.93;4.40;;;;;;;16.86;50.23;101744.53;843316;23;1476;-89
2022/08/08 01:09:40;;;;;;;4.70;4.25;;;;;;;16.81;50.32;101741.81;847218;23;1397;-89
2022/08/08 01:10:33;;;;;;;5.75;3.83;;;;;;;16.75;50.39;101725.00;832730;23;1159;-89
2022/08/08 01:11:32;;;;;;;4.78;4.22;;;;;;;16.76;50.37;101737.31;837597;23;1166;-89
2022/08/08 01:12:12;;;;;;;6.07;4.60;;;;;;;16.74;50.43;101733.75;847540;23;1368;-89
2022/08/08 01:12:47;;;;;;;5.20;4.50;;;;;;;16.73;50.54;101730.25;843420;23;1284;-88
2022/08/08 01:13:11;;;;;;;5.35;4.50;;;;;;;16.73;50.58;101735.53;835657;23;1205;-89
2022/08/08 01:14:23;;;;;;;4.80;4.30;;;;;;;16.69;50.58;101737.22;843489;23;1178;-89
2022/08/08 01:15:05;;;;;;;6.40;5.20;;;;;;;16.68;50.67;101735.47;843625;23;1151;-89
2022/08/08 01:15:27;;;;;;;5.47;4.65;;;;;;;16.65;50.63;101740.66;847330;23;1328;-88
2022/08/08 01:15:56;;;;;;;5.50;4.72;;;;;;;16.65;50.59;101742.41;843723;23;1243;-88
2022/08/08 01:16:48;;;;;;;6.47;4.90;;;;;;;16.65;50.60;101745.06;856042;23;1210;-89
2022/08/08 01:17:19;;;;;;;5.63;4.65;;;;;;;16.61;50.66;101738.84;848950;23;946;-89
2022/08/08 01:18:09;;;;;;;5.32;4.40;;;;;;;16.60;50.83;101747.59;849292;23;722;-89
2022/08/08 01:18:42;;;;;;;5.40;4.60;;;;;;;16.54;50.82;101732.53;843931;23;1109;-87
2022/08/08 01:20:01;;;;;;;5.30;4.80;;;;;;;16.56;50.90;101741.38;843358;23;1216;-88
2022/08/08 01:20:38;;;;;;;8.27;4.63;;;;;;;16.45;50.94;101721.84;838227;23;1181;-88
2022/08/08 01:21:20;;;;;;;5.45;4.57;;;;;;;16.52;50.81;101746.53;838985;23;1963;-89
2022/08/08 01:22:18;;;;;;;5.40;4.50;;;;;;;16.49;51.05;101744.75;835590;23;1349;-89
2022/08/08 01:23:04;;;;;;;5.60;4.40;;;;;;;16.46;51.09;101738.53;839143;23;1242;-89
2022/08/08 01:23:54;;;;;;;7.50;4.65;;;;;;;16.43;51.17;101750.78;843192;23;1295;-89
2022/08/08 01:24:55;;;;;;;5.60;4.60;;;;;;;16.42;51.58;101746.38;836405;23;997;-89
2022/08/08 01:25:33;;;;;;;6.70;4.60;;;;;;;16.43;51.63;101740.25;815566;24;1427;-89
2022/08/08 01:26:06;;;;;;;6.45;4.18;;;;;;;16.44;51.76;101743.78;833924;23;1300;-88
2022/08/08 01:26:47;;;;;;;4.95;4.40;;;;;;;16.41;51.45;101736.69;840463;23;1361;-88
2022/08/08 01:27:14;;;;;;;5.35;4.60;;;;;;;16.42;51.55;101738.47;843040;23;1361;-89
2022/08/08 01:27:57;;;;;;;6.10;4.63;;;;;;;16.42;51.55;101738.47;847749;23;1212;-89
2022/08/08 01:29:02;;;;;;;5.95;4.43;;;;;;;16.37;51.47;101729.63;839912;23;1408;-89
2022/08/08 01:29:48;;;;;;;6.38;4.30;;;;;;;16.41;51.84;101736.69;842654;23;1258;-88
2022/08/08 01:30:24;;;;;;;5.75;4.28;;;;;;;16.42;51.76;101743.75;847577;23;1299;-88
2022/08/08 01:31:06;;;;;;;5.03;4.35;;;;;;;16.41;51.58;101741.97;847700;23;1411;-89
2022/08/08 01:32:11;;;;;;;5.32;4.43;;;;;;;16.36;51.56;101738.38;846901;23;1272;-88
2022/08/08 01:32:42;;;;;;;5.20;4.30;;;;;;;16.37;51.54;101740.16;840532;23;1204;-89
2022/08/08 01:33:34;;;;;;;5.35;4.28;;;;;;;16.37;51.57;101739.25;843648;23;1367;-89
2022/08/08 01:34:20;;;;;;;7.18;4.70;;;;;;;16.29;51.33;101731.22;847501;23;1246;-89
2022/08/08 01:34:59;;;;;;;6.38;4.57;;;;;;;16.31;51.59;101740.88;847717;23;1299;-88
2022/08/08 01:35:54;;;;;;;5.90;4.60;;;;;;;16.26;51.55;101733.75;847552;23;1307;-88
2022/08/08 01:36:37;;;;;;;5.45;4.20;;;;;;;16.19;51.57;101722.19;835785;23;1309;-88
2022/08/08 01:37:14;;;;;;;4.72;4.30;;;;;;;16.22;51.65;101732.78;838899;23;1297;-88
2022/08/08 01:38:21;;;;;;;5.82;4.60;;;;;;;16.20;51.90;101730.97;851712;23;1382;-89
2022/08/08 01:39:14;;;;;;;5.40;4.90;;;;;;;16.21;51.93;101732.78;851287;23;1278;-88
2022/08/08 01:40:16;;;;;;;5.00;4.50;;;;;;;16.13;52.12;101727.34;839103;23;1275;-88
2022/08/08 01:40:59;;;;;;;5.28;4.78;;;;;;;16.14;52.25;101740.53;839632;23;1221;-88
2022/08/08 01:41:30;;;;;;;4.90;4.40;;;;;;;16.14;52.36;101731.75;843652;23;1197;-89
2022/08/08 01:41:58;;;;;;;5.18;4.50;;;;;;;16.06;52.15;101721.06;835424;23;1290;-88
2022/08/08 01:42:55;;;;;;;5.30;4.50;;;;;;;16.07;52.25;101725.47;847160;23;1268;-88
2022/08/08 01:44:03;;;;;;;4.95;4.45;;;;;;;16.10;52.66;101730.78;836344;23;1275;-89
2022/08/08 01:44:48;;;;;;;5.13;4.63;;;;;;;16.11;52.91;101731.69;835264;23;1242;-89
2022/08/08 01:45:48;;;;;;;5.03;4.55;;;;;;;16.07;52.66;101722.84;835166;23;1400;-88
2022/08/08 01:46:24;;;;;;;5.90;4.93;;;;;;;16.13;52.91;101736.13;840061;23;1255;-88
2022/08/08 01:47:19;;;;;;;5.20;4.68;;;;;;;16.14;52.94;101729.09;839864;23;1188;-89
2022/08/08 01:48:15;;;;;;;6.80;4.70;;;;;;;16.11;52.95;101722.03;843356;23;1295;-89
2022/08/08 01:49:18;;;;;;;5.28;4.70;;;;;;;16.12;52.53;101718.53;839124;23;1173;-89
2022/08/08 01:49:56;;;;;;;5.10;4.60;;;;;;;16.09;52.45;101723.75;843221;23;948;-88
2022/08/08 01:50:39;;;;;;;5.03;4.60;;;;;;;16.11;52.41;101732.56;847263;23;1258;-89
2022/08/08 01:51:31;;;;;;;5.43;4.63;;;;;;;16.07;52.57;101730.75;847331;23;1180;-88
2022/08/08 01:52:35;;;;;;;5.80;4.80;;;;;;;16.03;52.74;101736.78;843405;23;1271;-89
2022/08/08 01:53:08;;;;;;;5.82;4.70;;;;;;;15.98;52.79;101727.91;839345;23;1329;-88
2022/08/08 01:53:53;;;;;;;5.97;4.63;;;;;;;15.99;53.18;101738.47;831325;23;1288;-88
2022/08/08 01:54:24;;;;;;;5.55;4.80;;;;;;;15.90;53.08;101722.47;843461;23;1295;-89
2022/08/08 01:54:49;;;;;;;5.20;4.70;;;;;;;15.98;52.87;101733.19;843949;23;1353;-88
2022/08/08 01:55:21;;;;;;;5.65;4.80;;;;;;;15.94;53.29;101724.34;839820;23;1168;-88
2022/08/08 01:56:09;;;;;;;6.30;4.90;;;;;;;15.92;53.50;101720.75;847588;23;1187;-88
2022/08/08 01:56:47;;;;;;;4.93;4.40;;;;;;;15.97;53.41;101726.16;856584;23;1191;-87
2022/08/08 01:57:43;;;;;;;5.20;4.70;;;;;;;15.99;53.47;101735.81;852233;23;1285;-88
2022/08/08 01:58:28;;;;;;;5.10;4.60;;;;;;;15.97;53.47;101728.78;843045;23;1064;-88
2022/08/08 01:58:52;;;;;;;5.93;4.30;;;;;;;16.01;53.58;101733.25;844009;23;1482;-88
2022/08/08 01:59:43;;;;;;;5.75;5.15;;;;;;;15.99;53.32;101727.94;843397;23;1239;-88
2022/08/08 02:00:16;;;;;;;6.00;5.40;;;;;;;15.92;53.18;101727.78;843769;23;1407;-89
2022/08/08 02:01:09;;;;;;;5.60;5.00;;;;;;;15.97;53.27;101740.19;848254;23;1367;-89
2022/08/08 02:01:56;;;;;;;5.70;5.20;;;;;;;15.93;53.14;101734.81;843927;23;1301;-88
2022/08/08 02:02:26;;;;;;;6.63;4.97;;;;;;;15.90;53.10;101739.19;847828;23;969;-88
2022/08/08 02:03:18;;;;;;;6.05;4.82;;;;;;;15.88;53.21;101740.00;847809;23;1180;-89
2022/08/08 02:03:47;;;;;;;5.50;4.93;;;;;;;15.87;53.17;101739.09;851957;23;1337;-88
2022/08/08 02:04:19;;;;;;;6.05;5.00;;;;;;;15.79;53.10;101729.28;857395;23;990;-89
2022/08/08 02:05:00;;;;;;;5.45;4.85;;;;;;;15.75;53.32;101725.69;847778;23;1482;-88
2022/08/08 02:05:48;;;;;;;5.53;4.93;;;;;;;15.75;53.34;101734.44;847372;23;1195;-88
2022/08/08 02:06:17;;;;;;;5.50;5.00;;;;;;;15.80;53.47;101742.44;847211;23;1277;-88
2022/08/08 02:07:01;;;;;;;5.47;4.97;;;;;;;15.77;53.48;101739.75;843755;23;1252;-89
2022/08/08 02:08:15;;;;;;;6.43;4.90;;;;;;;15.71;53.63;101731.72;843469;23;1285;-88
2022/08/08 02:08:55;;;;;;;5.28;4.78;;;;;;;15.75;53.97;101746.72;847422;23;1259;-88
2022/08/08 02:09:18;;;;;;;5.60;4.80;;;;;;;15.75;53.94;101742.34;843747;23;1214;-89
2022/08/08 02:09:56;;;;;;;6.30;5.10;;;;;;;15.72;53.78;101738.75;842925;23;1420;-88
2022/08/08 02:10:44;;;;;;;6.03;5.20;;;;;;;15.75;53.98;101749.38;843584;23;1314;-88
2022/08/08 02:11:22;;;;;;;6.47;5.43;;;;;;;15.75;53.88;101752.00;851304;23;1346;-88
2022/08/08 02:11:45;;;;;;;6.10;5.50;;;;;;;15.67;54.00;101735.16;847376;23;1269;-89
2022/08/08 02:12:15;;;;;;;5.90;5.10;;;;;;;15.73;54.05;101743.19;844968;23;1101;-88
2022/08/08 02:12:42;;;;;;;5.97;5.30;;;;;;;15.62;54.24;101730.66;843419;23;1180;-88
2022/08/08 02:13:15;;;;;;;6.50;5.40;;;;;;;15.72;53.87;101741.38;843287;23;1341;-88
2022/08/08 02:13:49;;;;;;;6.13;5.10;;;;;;;15.66;53.78;101736.88;845058;23;813;-89
2022/08/08 02:14:23;;;;;;;5.57;5.07;;;;;;;15.72;53.98;101744.91;843322;23;1477;-88
2022/08/08 02:14:59;;;;;;;6.30;5.45;;;;;;;15.72;54.11;101744.91;843512;23;1189;-89
2022/08/08 02:15:29;;;;;;;5.97;5.38;;;;;;;15.73;54.00;101745.81;847170;23;1236;-88
2022/08/08 02:16:14;;;;;;;6.07;5.00;;;;;;;15.72;54.05;101744.91;851614;23;1359;-89
2022/08/08 02:16:44;;;;;;;7.90;5.60;;;;;;;15.65;54.17;101727.22;847676;23;1322;-88
2022/08/08 02:17:21;;;;;;;6.60;5.63;;;;;;;15.69;54.08;101736.06;851639;23;1255;-88
2022/08/08 02:17:55;;;;;;;7.00;5.43;;;;;;;15.66;53.90;101736.00;847678;23;1354;-88
2022/08/08 02:18:25;;;;;;;5.95;5.35;;;;;;;15.69;53.93;101736.06;839101;23;1412;-88
2022/08/08 02:19:05;;;;;;;5.90;5.38;;;;;;;15.67;54.02;101735.16;843710;23;1318;-88
2022/08/08 02:19:59;;;;;;;5.85;5.35;;;;;;;15.68;53.97;101747.44;846866;23;1438;-89
2022/08/08 02:20:34;;;;;;;5.82;5.22;;;;;;;15.65;54.06;101743.00;839017;23;1219;-88
2022/08/08 02:23:13;;;;;;;6.60;6.00;;;;;;;15.66;54.47;101747.41;846149;23;1256;-88
2022/08/08 02:23:50;;;;;;;6.45;5.75;;;;;;;15.65;54.61;101736.84;836823;23;1355;-88
2022/08/08 02:24:17;;;;;;;5.55;5.05;;;;;;;15.63;54.48;101740.31;847180;23;1243;-89
2022/08/08 02:24:54;;;;;;;5.88;5.28;;;;;;;15.62;54.42;101733.28;843448;23;1219;-88
2022/08/08 02:25:48;;;;;;;6.30;5.60;;;;;;;15.58;54.53;101731.47;839372;23;1332;-88
2022/08/08 02:26:22;;;;;;;6.50;5.78;;;;;;;15.67;54.60;101749.19;843018;23;1233;-88
2022/08/08 02:26:50;;;;;;;9.18;5.97;;;;;;;15.68;54.55;101748.31;847418;23;1246;-88
2022/08/08 02:27:17;;;;;;;9.00;5.90;;;;;;;15.61;54.43;101736.78;850932;23;1357;-89
2022/08/08 02:27:45;;;;;;;7.25;5.95;;;;;;;15.65;54.73;101742.09;843447;23;1384;-88
2022/08/08 02:28:55;;;;;;;6.50;5.80;;;;;;;15.66;54.41;101743.91;839397;23;1293;-89
2022/08/08 02:29:28;;;;;;;6.30;5.70;;;;;;;15.59;54.66;101732.34;819336;24;1324;-88
2022/08/08 02:30:01;;;;;;;10.38;5.78;;;;;;;15.63;54.67;101748.22;831171;23;1297;-88
2022/08/08 02:30:26;;;;;;;11.35;5.70;;;;;;;15.63;54.71;101742.97;843020;23;1311;-88
2022/08/08 02:31:25;;;;;;;7.18;5.72;;;;;;;15.57;54.65;101734.94;847639;23;1356;-88
2022/08/08 02:32:16;;;;;;;6.43;5.82;;;;;;;15.61;54.63;101743.81;842668;23;928;-88
2022/08/08 02:34:07;;;;;;;6.57;5.88;;;;;;;15.59;54.93;101746.41;851344;23;1354;-88
2022/08/08 02:35:09;;;;;;;6.60;5.93;;;;;;;15.55;54.76;101735.75;850794;23;770;-88
2022/08/08 02:35:47;;;;;;;6.40;5.70;;;;;;;15.55;54.75;101757.69;832644;23;1165;-88
2022/08/08 02:36:14;;;;;;;6.38;5.78;;;;;;;15.54;54.78;101748.00;822999;23;1389;-89
2022/08/08 02:36:42;;;;;;;6.10;5.47;;;;;;;15.52;54.69;101751.47;823942;23;1256;-88
2022/08/08 02:37:16;;;;;;;6.43;5.55;;;;;;;15.45;54.85;101738.19;827048;23;1345;-89
2022/08/08 02:38:09;;;;;;;6.40;5.80;;;;;;;15.40;54.81;101736.28;842315;23;1376;-88
2022/08/08 02:38:55;;;;;;;6.10;5.50;;;;;;;15.45;54.75;101751.34;842879;23;1402;-88
2022/08/08 02:39:50;;;;;;;6.65;5.95;;;;;;;15.34;54.67;101735.31;834326;23;1284;-88
2022/08/08 02:40:18;;;;;;;6.75;6.10;;;;;;;15.31;55.02;101732.59;844704;23;1046;-88
2022/08/08 02:41:01;;;;;;;8.35;6.15;;;;;;;15.37;55.09;101750.28;843221;23;1270;-88
2022/08/08 02:41:38;;;;;;;6.53;5.50;;;;;;;15.34;55.10;101744.91;851351;23;1272;-89
2022/08/08 02:42:29;;;;;;;6.68;5.50;;;;;;;15.28;55.02;101736.88;854714;23;952;-88
2022/08/08 02:43:34;;;;;;;8.40;6.00;;;;;;;15.30;54.98;101748.34;855730;23;1195;-89
2022/08/08 02:44:10;;;;;;;6.68;5.93;;;;;;;15.21;54.95;101735.84;838920;23;919;-88
2022/08/08 02:44:53;;;;;;;10.05;6.07;;;;;;;15.27;55.32;101743.91;847340;23;1289;-89
2022/08/08 02:45:36;;;;;;;8.73;6.13;;;;;;;15.21;55.29;101735.84;851612;23;997;-89
2022/08/08 02:46:15;;;;;;;6.13;5.53;;;;;;;15.25;55.43;101745.59;844325;23;1304;-89
2022/08/08 02:46:59;;;;;;;7.13;5.80;;;;;;;15.21;55.67;101741.13;851171;23;1267;-89
2022/08/08 02:48:07;;;;;;;8.93;6.13;;;;;;;15.25;55.78;101735.09;852472;23;1238;-89
2022/08/08 02:49:08;;;;;;;7.45;5.75;;;;;;;15.25;55.77;101740.34;832188;23;1258;-89
2022/08/08 02:49:48;;;;;;;6.95;6.25;;;;;;;15.23;55.83;101739.41;836343;23;1278;-88
2022/08/08 02:50:25;;;;;;;6.07;5.43;;;;;;;15.21;56.01;101742.00;835913;23;1183;-88
2022/08/08 02:51:35;;;;;;;7.30;5.60;;;;;;;15.19;56.04;101737.53;836026;23;1285;-89
2022/08/08 02:52:33;;;;;;;8.60;6.20;;;;;;;15.14;56.14;101731.25;825874;23;1406;-88
2022/08/08 02:53:00;;;;;;;6.32;5.72;;;;;;;15.14;55.97;101740.06;831302;23;1135;-88
2022/08/08 02:53:39;;;;;;;7.10;6.40;;;;;;;15.17;56.00;101749.72;824132;23;1249;-88
2022/08/08 02:54:35;;;;;;;7.75;6.30;;;;;;;15.16;56.07;101745.31;831534;23;1250;-89
2022/08/08 02:55:18;;;;;;;7.80;6.20;;;;;;;15.13;56.10;101738.25;827403;23;1292;-88
2022/08/08 02:56:20;;;;;;;6.97;6.28;;;;;;;15.10;56.10;101737.31;831376;23;1286;-88
2022/08/08 02:57:06;;;;;;;7.50;6.80;;;;;;;15.13;56.17;101746.13;851798;23;1265;-89
2022/08/08 02:58:04;;;;;;;9.00;6.50;;;;;;;15.13;56.23;101756.66;843554;23;1362;-88
2022/08/08 02:59:06;;;;;;;7.10;5.68;;;;;;;15.05;56.54;101742.44;847227;23;1466;-88
2022/08/08 03:00:19;;;;;;;7.45;5.97;;;;;;;15.08;56.43;101740.75;846985;23;1259;-88
2022/08/08 03:01:19;;;;;;;7.60;6.50;;;;;;;15.12;56.51;101752.25;831589;23;1240;-88
2022/08/08 03:02:18;;;;;;;7.93;6.78;;;;;;;15.12;56.48;101747.00;851855;23;1353;-89
2022/08/08 03:03:16;;;;;;;7.13;6.20;;;;;;;15.11;56.47;101752.22;843698;23;1235;-88
2022/08/08 03:04:19;;;;;;;8.30;6.20;;;;;;;15.08;56.35;101747.78;843487;23;1291;-88
2022/08/08 03:04:59;;;;;;;7.00;6.30;;;;;;;15.05;56.46;101745.97;851817;23;1184;-89
2022/08/08 03:05:38;;;;;;;7.38;6.57;;;;;;;15.04;56.74;101748.53;851597;23;1351;-88
2022/08/08 03:06:11;;;;;;;6.80;6.10;;;;;;;15.02;56.51;101742.34;855316;23;1304;-88
2022/08/08 03:07:10;;;;;;;6.40;5.80;;;;;;;15.02;56.71;101748.53;839232;23;1211;-88
2022/08/08 03:08:09;;;;;;;7.30;6.60;;;;;;;15.00;56.90;101747.56;838936;23;1337;-88
2022/08/08 03:08:57;;;;;;;6.90;6.20;;;;;;;15.00;56.82;101752.81;840088;23;826;-88
2022/08/08 03:09:39;;;;;;;7.40;6.50;;;;;;;15.00;56.87;101754.59;834785;23;1162;-88
2022/08/08 03:10:19;;;;;;;7.30;6.50;;;;;;;14.98;56.97;101751.91;851365;23;1334;-87
2022/08/08 03:11:17;;;;;;;7.20;6.03;;;;;;;14.98;57.00;101756.28;855659;23;1418;-88
2022/08/08 03:12:13;;;;;;;7.90;6.40;;;;;;;14.97;57.02;101747.50;847597;23;1283;-88
2022/08/08 03:12:44;;;;;;;7.72;6.60;;;;;;;14.97;56.93;101751.84;851541;23;1349;-88
2022/08/08 03:13:38;;;;;;;7.00;6.30;;;;;;;14.94;57.25;101752.69;847665;23;1186;-88
2022/08/08 03:14:02;;;;;;;7.70;6.70;;;;;;;14.95;57.18;101757.09;843345;23;1193;-88
2022/08/08 03:14:50;;;;;;;7.88;6.55;;;;;;;14.94;57.35;101761.44;847294;23;1286;-89
2022/08/08 03:15:45;;;;;;;7.40;6.30;;;;;;;14.88;57.31;101752.53;839208;23;1157;-88
2022/08/08 03:16:15;;;;;;;8.07;6.00;;;;;;;14.94;57.61;101757.94;838925;23;1259;-88
2022/08/08 03:16:39;;;;;;;7.85;6.40;;;;;;;14.92;57.45;101750.03;847411;23;1124;-88
2022/08/08 03:17:11;;;;;;;7.15;6.43;;;;;;;14.89;57.53;101755.19;848823;23;893;-88
2022/08/08 03:18:14;;;;;;;7.05;5.97;;;;;;;14.87;57.30;101751.63;847517;23;1390;-88
2022/08/08 03:18:36;;;;;;;7.28;6.50;;;;;;;14.93;57.63;101756.16;838929;23;1373;-88
2022/08/08 03:19:15;;;;;;;7.63;6.40;;;;;;;14.95;57.52;101754.47;843293;23;1203;-88
2022/08/08 03:20:23;;;;;;;8.00;6.90;;;;;;;14.96;57.68;101755.34;846386;23;1052;-88
2022/08/08 03:20:45;;;;;;;8.18;6.90;;;;;;;14.96;57.48;101761.50;856613;23;1250;-88
2022/08/08 03:21:05;;;;;;;7.88;6.38;;;;;;;14.96;57.69;101756.25;847081;23;1959;-88